CPY2 weather

Milton (District Hospital) Heliport
Milton, Ontario, Canada

Public forecast

Using degrees Celsius for public forecast. Weather courtesy of forecast.io.

METAR (pilot weather report)

Closest report is Lester B. Pearson International Airport, 15.1 nm (27.9 km) NE. Retrieved 2019/01/23 08:00 UTC (1 hour ago):

CYYZ 230800Z 17006KT 6SM -SN SCT009 OVC017 M01/M04 A3000 RMK SF4SC4 SLP171

TAF (pilot weather forecast)

Closest forecast is Lester B. Pearson International Airport, 15.1 nm (27.9 km) NE. Retrieved 2019/01/23 09:47 UTC (0 seconds ago):

TAF CYYZ 230843Z 2309/2412 17007KT 6SM -SN SCT010 OVC025 TEMPO 2309/2310 21/2SM -SN SCT009 OVC015 FM231000 17010KT 4SM -SN SCT008 OVC020 TEMPO 2310/2312 2SM -SN BKN008 OVC015 PROB30 2310/2312 3SM -SNPL FM231200 16010KT 3SM -PLSN SCT006 OVC012 PROB40 2312/2315 2SM -FZRA BR OVC006 FM231500 18012KT 2SM -RA BR OVC006 PROB30 2315/2316 3SM -FZRA BR FM231700 19010G20KT 2SM -RA BR OVC005 PROB30 2317/2320 OVC003 FM232000 19015G25KT 3SM -RA BR OVC008 FM240000 21018G30KT 5SM -RA BR BKN009 OVC020 FM240100 23020G35KT P6SM BKN020 OVC100 FM240300 24020G30KT P6SM SCT020 OVC100 BECMG 2403/2405 26015G25KT FM240900 28010G20KT P6SM BKN020 BKN100 RMK NXT FCST BY 231200Z